Dalhart Municipal Airport
KDHT : now visible

Aeroporto :











RITROVATECI SU...

 
LOGIN :

Iscrizione | Disclaimer

   EN    FR    IT 

 









Sommario :    VFR   VFR Marginale   IFR   IFR Intensivo   IFR Molto Intensivo
Visibilità : 
Base nubi : 
>= 8 km
>= 3000ft
5 / 8 km
1000 / 3000 ft
1500m / 5 km
500 / 1000 ft
800 / 1500m
200 / 500 ft
< 800m
< 200 ft
Simboli :   Temporali  Nebbia  Neve Forte  Precipitazioni Forti  Vento > 20 kt






- Altitudine del aeroporto : 3991 ft


KDHT - Dalhart Municipal

ULTIMO METAR :
  • 210953Z AUTO 03004KT 10SM SCT110 20/16 A3023 RMK AO2 SLP177 T02000161

METARs OBSOLETI :
  • 210853Z AUTO 01006KT 10SM CLR 19/16 A3024 RMK AO2 SLP180 T01940161 50004
  • 210753Z AUTO 32008KT 10SM FEW120 19/17 A3025 RMK AO2 SLP183 T01940167
  • 210653Z AUTO 33007KT 10SM CLR 20/16 A3024 RMK AO2 SLP179 T02000161
  • 210553Z AUTO 31004KT 10SM CLR 21/15 A3023 RMK AO2 SLP175 T02060150 10300 20206 403060189 50000

TAF KDHT
Valido dal 21 a 06 ore il 22 a 06 ore UTC


210538Z 2106/2206 36006KT P6SM SCT250
FM211400 04007KT P6SM VCSH BKN060
FM211700 05008KT P6SM SCT100
FM211900 04007KT P6SM SCT150
PROB30 2121/2123 4SM TSRA BKN200CB
FM212300 04009KT P6SM BKN080
PROB30 2123/2205 4SM TSRA OVC025CB
FIR KZAB / America del Nord



MetMap, La meteo Aeronautica in un colpo d'occhio ! - Copyright ORBIFLY Dicembre 2007 - Disclaimer

ORBIFLY MET'MAP TEAM :

Programmazione e sviluppo : Alexandra Zaïnal
Concezione : Baudouin d'Aumeries
Supporto tecnico e logistico : Manuel Goepfert
Aiuto : Marc-Olivier Méhu
Aiuto per la traduzione : Arnaldo La Scala




FONTI E CREDITI :

   NOAA       Earth
Advisory